Time;durP1;ratioP1;P1;durP2;ratioP2;P2;SDS_P1;SDS_P2;PMS_P1;PMS_P2;Temp;Humidity;BMP_temperature;BMP_pressure;BME280_temperature;BME280_humidity;BME280_pressure;Samples;Min_cycle;Max_cycle;Signal;HPM_P1;HPM_P2
2021/06/11 00:02:01;;;;;;;;;;;;;;;;;;4960328;28;19923;-91
2021/06/11 00:04:29;;;;;;;;;;;;;;;;;;4957919;28;19937;-90
2021/06/11 00:06:57;;;;;;;;;;;;;;;;;;4968340;28;19929;-89
2021/06/11 00:09:26;;;;;;;;;;;;;;;;;;4963256;28;19933;-88
2021/06/11 00:11:55;;;;;;;;;;;;;;;;;;4965529;28;19922;-90
2021/06/11 00:14:23;;;;;;;;;;;;;;;;;;4959851;28;19923;-88
2021/06/11 00:16:51;;;;;;;;;;;;;;;;;;4955218;28;19945;-91
2021/06/11 00:19:20;;;;;;;;;;;;;;;;;;4978964;28;19930;-90
2021/06/11 00:21:48;;;;;;;;;;;;;;;;;;4955759;28;19926;-88
2021/06/11 00:24:16;;;;;;;;;;;;;;;;;;4957360;28;19930;-89
2021/06/11 00:26:45;;;;;;;;;;;;;;;;;;4953748;28;20320;-90
2021/06/11 00:29:12;;;;;;;;;;;;;;;;;;4958508;28;19930;-90
2021/06/11 00:31:40;;;;;;;;;;;;;;;;;;4957211;28;19926;-89
2021/06/11 00:34:09;;;;;;;;;;;;;;;;;;4979303;28;19933;-90
2021/06/11 00:36:38;;;;;;;;;;;;;;;;;;4988183;28;19922;-92
2021/06/11 00:39:06;;;;;;;;;;;;;;;;;;5002518;28;19930;-91
2021/06/11 00:41:34;;;;;;;;;;;;;;;;;;4974245;28;19910;-91
2021/06/11 00:44:02;;;;;;;;;;;;;;;;;;4990547;28;19933;-90
2021/06/11 00:46:30;;;;;;;;;;;;;;;;;;4953243;28;19945;-90
2021/06/11 00:48:58;;;;;;;;;;;;;;;;;;4957866;28;20399;-90
2021/06/11 00:51:26;;;;;;;;;;;;;;;;;;4953640;28;19922;-91
2021/06/11 00:53:55;;;;;;;;;;;;;;;;;;4954690;28;19923;-88
2021/06/11 00:56:23;;;;;;;;;;;;;;;;;;4956274;28;19929;-89
2021/06/11 00:58:51;;;;;;;;;;;;;;;;;;4956436;28;20372;-89
2021/06/11 01:01:19;;;;;;;;;;;;;;;;;;4969941;28;20320;-89
2021/06/11 01:03:47;;;;;;;;;;;;;;;;;;4954588;28;19922;-90
2021/06/11 01:06:15;;;;;;;;;;;;;;;;;;4953554;28;19922;-91
2021/06/11 01:08:43;;;;;;;;;;;;;;;;;;4957412;28;20308;-91
2021/06/11 01:11:12;;;;;;;;;;;;;;;;;;4955917;28;19922;-89
2021/06/11 01:13:40;;;;;;;;;;;;;;;;;;4951505;28;19926;-89
2021/06/11 01:16:08;;;;;;;;;;;;;;;;;;4947520;28;19945;-87
2021/06/11 01:18:36;;;;;;;;;;;;;;;;;;4957293;28;19922;-87
2021/06/11 01:21:04;;;;;;;;;;;;;;;;;;4953538;28;19922;-90
2021/06/11 01:23:40;;;;;;;;;;;;;;;;;;4954812;28;19921;-90
2021/06/11 01:26:19;;;;;;;;;;;;;;;;;;4953061;28;19922;-91
2021/06/11 01:28:47;;;;;;;;;;;;;;;;;;4963943;28;19923;-88
2021/06/11 01:31:15;;;;;;;;;;;;;;;;;;4955987;28;20312;-88
2021/06/11 01:33:43;;;;;;;;;;;;;;;;;;4968295;28;19929;-89
2021/06/11 01:36:11;;;;;;;;;;;;;;;;;;4952874;28;19930;-88
2021/06/11 01:38:40;;;;;;;;;;;;;;;;;;4958675;28;20632;-89
2021/06/11 01:41:09;;;;;;;;;;;;;;;;;;4955497;28;19922;-86
2021/06/11 01:43:38;;;;;;;;;;;;;;;;;;4958589;28;20416;-86
2021/06/11 01:46:06;;;;;;;;;;;;;;;;;;4967395;28;19922;-87
2021/06/11 01:48:34;;;;;;;;;;;;;;;;;;4957622;28;19922;-88
2021/06/11 01:51:02;;;;;;;;;;;;;;;;;;4971168;28;19926;-89
2021/06/11 01:53:30;;;;;;;;;;;;;;;;;;4961733;28;19930;-88
2021/06/11 01:55:58;;;;;;;;;;;;;;;;;;4972203;28;19926;-90
2021/06/11 01:58:26;;;;;;;;;;;;;;;;;;4980631;28;20292;-90
2021/06/11 02:00:55;;;;;;;;;;;;;;;;;;4971812;28;19929;-89
2021/06/11 02:03:23;;;;;;;;;;;;;;;;;;4957247;28;19922;-88
2021/06/11 02:05:52;;;;;;;;;;;;;;;;;;4962207;28;19923;-87
2021/06/11 02:08:20;;;;;;;;;;;;;;;;;;4962688;28;19922;-90
2021/06/11 02:10:48;;;;;;;;;;;;;;;;;;4981185;28;19929;-87
2021/06/11 02:13:16;;;;;;;;;;;;;;;;;;4969805;28;19922;-87
2021/06/11 02:15:44;;;;;;;;;;;;;;;;;;4974129;28;19930;-86
2021/06/11 02:18:13;;;;;;;;;;;;;;;;;;4958915;28;19926;-87
2021/06/11 02:20:41;;;;;;;;;;;;;;;;;;4983073;28;19933;-88
2021/06/11 02:23:09;;;;;;;;;;;;;;;;;;4954465;28;20380;-88
2021/06/11 02:25:37;;;;;;;;;;;;;;;;;;4956902;28;19929;-90
2021/06/11 02:28:06;;;;;;;;;;;;;;;;;;4955397;28;20396;-90
2021/06/11 02:30:33;;;;;;;;;;;;;;;;;;4960483;28;19926;-90
2021/06/11 02:33:01;;;;;;;;;;;;;;;;;;4973723;28;19929;-89
2021/06/11 02:35:31;;;;;;;;;;;;;;;;;;4959188;28;20388;-88
2021/06/11 02:37:59;;;;;;;;;;;;;;;;;;4954660;29;19930;-88
2021/06/11 02:40:26;;;;;;;;;;;;;;;;;;4951093;28;19929;-89
2021/06/11 02:42:55;;;;;;;;;;;;;;;;;;4959921;29;19929;-90
2021/06/11 02:45:25;;;;;;;;;;;;;;;;;;4950325;28;19922;-89
2021/06/11 02:47:55;;;;;;;;;;;;;;;;;;4956259;28;19923;-89
2021/06/11 02:50:23;;;;;;;;;;;;;;;;;;4955971;28;19929;-89
2021/06/11 02:52:53;;;;;;;;;;;;;;;;;;4955661;28;19945;-90
2021/06/11 02:55:22;;;;;;;;;;;;;;;;;;4955179;28;19922;-90
2021/06/11 02:57:50;;;;;;;;;;;;;;;;;;4980309;28;19988;-87
2021/06/11 03:00:18;;;;;;;;;;;;;;;;;;4954808;28;20391;-89
2021/06/11 03:02:47;;;;;;;;;;;;;;;;;;4968679;28;19926;-89
2021/06/11 03:05:16;;;;;;;;;;;;;;;;;;4955353;28;19922;-89
2021/06/11 03:07:45;;;;;;;;;;;;;;;;;;4954890;28;19921;-93
2021/06/11 03:10:15;;;;;;;;;;;;;;;;;;4954541;28;19922;-89
2021/06/11 03:12:43;;;;;;;;;;;;;;;;;;4954525;28;20407;-87
2021/06/11 03:15:13;;;;;;;;;;;;;;;;;;4951417;28;20296;-87
2021/06/11 03:17:43;;;;;;;;;;;;;;;;;;4958536;28;19937;-91
2021/06/11 03:20:12;;;;;;;;;;;;;;;;;;4975371;28;19933;-90
2021/06/11 03:22:42;;;;;;;;;;;;;;;;;;4955910;28;19945;-90
2021/06/11 03:25:12;;;;;;;;;;;;;;;;;;4956077;28;19926;-89
2021/06/11 03:27:42;;;;;;;;;;;;;;;;;;4957616;28;19923;-89
2021/06/11 03:30:10;;;;;;;;;;;;;;;;;;4950172;28;20402;-89
2021/06/11 03:32:39;;;;;;;;;;;;;;;;;;4958303;28;19929;-90
2021/06/11 03:35:08;;;;;;;;;;;;;;;;;;4957251;28;19933;-89
2021/06/11 03:37:35;;;;;;;;;;;;;;;;;;4959164;28;19938;-88
2021/06/11 03:40:04;;;;;;;;;;;;;;;;;;4970361;28;19926;-88
2021/06/11 03:42:32;;;;;;;;;;;;;;;;;;4965694;28;20385;-87
2021/06/11 03:45:02;;;;;;;;;;;;;;;;;;4958795;28;19933;-91
2021/06/11 03:47:31;;;;;;;;;;;;;;;;;;4952359;28;19922;-90
2021/06/11 03:49:59;;;;;;;;;;;;;;;;;;4967371;28;19922;-87
2021/06/11 03:52:27;;;;;;;;;;;;;;;;;;4951736;28;19930;-89
2021/06/11 03:54:56;;;;;;;;;;;;;;;;;;4962488;28;19922;-87
2021/06/11 03:57:26;;;;;;;;;;;;;;;;;;4971215;28;19926;-89
2021/06/11 03:59:54;;;;;;;;;;;;;;;;;;4965487;28;19922;-89
2021/06/11 04:02:23;;;;;;;;;;;;;;;;;;4956404;28;19926;-89
2021/06/11 04:04:51;;;;;;;;;;;;;;;;;;4957307;28;19922;-90
2021/06/11 04:07:21;;;;;;;;;;;;;;;;;;4960127;28;19941;-90
2021/06/11 04:09:50;;;;;;;;;;;;;;;;;;4961316;28;19929;-89
2021/06/11 04:12:20;;;;;;;;;;;;;;;;;;4963958;28;20110;-87
2021/06/11 04:14:49;;;;;;;;;;;;;;;;;;4953275;28;19922;-89
2021/06/11 04:17:17;;;;;;;;;;;;;;;;;;4959354;28;19933;-91
2021/06/11 04:19:48;;;;;;;;;;;;;;;;;;4963605;28;19922;-87
2021/06/11 04:22:15;;;;;;;;;;;;;;;;;;4953244;28;19922;-87
2021/06/11 04:24:44;;;;;;;;;;;;;;;;;;4952806;28;19938;-89
2021/06/11 04:27:12;;;;;;;;;;;;;;;;;;4971801;28;19923;-91
2021/06/11 04:29:39;;;;;;;;;;;;;;;;;;4955730;28;19933;-84
2021/06/11 04:32:08;;;;;;;;;;;;;;;;;;4958726;28;19922;-87
2021/06/11 04:34:36;;;;;;;;;;;;;;;;;;4963527;28;19922;-86
2021/06/11 04:37:05;;;;;;;;;;;;;;;;;;4960231;28;19930;-85
2021/06/11 04:39:33;;;;;;;;;;;;;;;;;;4991549;28;19925;-84
2021/06/11 04:42:01;;;;;;;;;;;;;;;;;;4967523;28;19929;-90
2021/06/11 04:44:29;;;;;;;;;;;;;;;;;;4953073;28;19926;-88
2021/06/11 04:46:57;;;;;;;;;;;;;;;;;;4974408;28;19922;-89
2021/06/11 04:49:25;;;;;;;;;;;;;;;;;;4970444;28;19930;-87
2021/06/11 04:51:53;;;;;;;;;;;;;;;;;;4958347;28;20300;-85
2021/06/11 04:54:22;;;;;;;;;;;;;;;;;;4964622;28;19937;-87
2021/06/11 04:56:50;;;;;;;;;;;;;;;;;;4967018;28;19923;-87
2021/06/11 04:59:17;;;;;;;;;;;;;;;;;;4975840;28;20385;-88
2021/06/11 05:01:45;;;;;;;;;;;;;;;;;;4989259;28;19922;-88
2021/06/11 05:04:13;;;;;;;;;;;;;;;;;;4961426;28;19923;-85
2021/06/11 05:06:41;;;;;;;;;;;;;;;;;;4976376;28;20281;-85
2021/06/11 05:09:09;;;;;;;;;;;;;;;;;;4957171;28;19930;-86
2021/06/11 05:11:38;;;;;;;;;;;;;;;;;;4955624;28;19922;-85
2021/06/11 05:14:06;;;;;;;;;;;;;;;;;;4973239;28;19929;-88
2021/06/11 05:16:34;;;;;;;;;;;;;;;;;;4965062;28;19926;-86
2021/06/11 05:19:03;;;;;;;;;;;;;;;;;;4955099;28;19923;-85
2021/06/11 05:21:31;;;;;;;;;;;;;;;;;;4950881;28;19922;-86
2021/06/11 05:23:58;;;;;;;;;;;;;;;;;;4951826;28;19938;-84
2021/06/11 05:26:26;;;;;;;;;;;;;;;;;;4952205;28;19933;-85
2021/06/11 05:28:56;;;;;;;;;;;;;;;;;;4967821;28;19929;-86
2021/06/11 05:31:23;;;;;;;;;;;;;;;;;;4965580;28;19930;-84
2021/06/11 05:33:51;;;;;;;;;;;;;;;;;;4958478;28;19932;-83
2021/06/11 05:36:19;;;;;;;;;;;;;;;;;;4954408;28;19938;-85
2021/06/11 05:38:47;;;;;;;;;;;;;;;;;;4967386;28;19922;-82
2021/06/11 05:41:15;;;;;;;;;;;;;;;;;;4946544;28;19948;-83
2021/06/11 05:43:44;;;;;;;;;;;;;;;;;;4951378;28;19925;-88
2021/06/11 05:46:13;;;;;;;;;;;;;;;;;;4950584;28;20292;-87
2021/06/11 05:48:43;;;;;;;;;;;;;;;;;;4962574;28;19922;-86
2021/06/11 05:51:10;;;;;;;;;;;;;;;;;;4951241;28;19941;-83
2021/06/11 05:53:38;;;;;;;;;;;;;;;;;;4952697;28;19922;-82
2021/06/11 05:56:06;;;;;;;;;;;;;;;;;;4955692;28;19925;-83
2021/06/11 05:58:34;;;;;;;;;;;;;;;;;;4971051;28;19937;-89
2021/06/11 06:01:03;;;;;;;;;;;;;;;;;;4947476;28;19929;-81
2021/06/11 06:03:32;;;;;;;;;;;;;;;;;;4969807;28;19926;-85
2021/06/11 06:06:00;;;;;;;;;;;;;;;;;;4989276;28;19930;-86
2021/06/11 06:08:28;;;;;;;;;;;;;;;;;;4977553;28;20380;-84
2021/06/11 06:10:56;;;;;;;;;;;;;;;;;;4969007;28;20369;-86
2021/06/11 06:13:24;;;;;;;;;;;;;;;;;;4952524;28;19923;-87
2021/06/11 06:18:48;;;;;;;;;;;;;;;;;;4950080;28;19930;-85
2021/06/11 06:21:16;;;;;;;;;;;;;;;;;;4940620;28;19922;-86
2021/06/11 06:23:44;;;;;;;;;;;;;;;;;;4950531;28;19929;-86
2021/06/11 06:26:12;;;;;;;;;;;;;;;;;;4951400;28;20388;-86
2021/06/11 06:28:40;;;;;;;;;;;;;;;;;;4953187;28;19956;-84
2021/06/11 06:31:07;;;;;;;;;;;;;;;;;;4949875;28;19922;-84
2021/06/11 06:33:35;;;;;;;;;;;;;;;;;;4966060;28;20669;-83
2021/06/11 06:36:06;;;;;;;;;;;;;;;;;;4956302;28;19922;-83
2021/06/11 06:38:34;;;;;;;;;;;;;;;;;;4952403;28;19923;-84
2021/06/11 06:41:02;;;;;;;;;;;;;;;;;;4962108;28;19922;-84
2021/06/11 06:43:32;;;;;;;;;;;;;;;;;;4964144;28;19922;-83
2021/06/11 06:46:00;;;;;;;;;;;;;;;;;;4954034;28;19929;-85
2021/06/11 06:48:28;;;;;;;;;;;;;;;;;;4968382;28;19927;-85
2021/06/11 06:50:56;;;;;;;;;;;;;;;;;;4965983;28;19922;-85
2021/06/11 06:53:25;;;;;;;;;;;;;;;;;;4965367;28;19922;-83
2021/06/11 06:55:53;;;;;;;;;;;;;;;;;;4950438;28;20385;-83
2021/06/11 06:58:21;;;;;;;;;;;;;;;;;;4968294;28;19922;-84
2021/06/11 07:00:49;;;;;;;;;;;;;;;;;;4953037;28;19926;-84
2021/06/11 07:03:17;;;;;;;;;;;;;;;;;;4952915;28;19938;-84
2021/06/11 07:05:45;;;;;;;;;;;;;;;;;;4954863;28;19922;-85
2021/06/11 07:08:13;;;;;;;;;;;;;;;;;;4951013;28;19930;-87
2021/06/11 07:10:42;;;;;;;;;;;;;;;;;;4953476;28;19931;-85
2021/06/11 07:13:11;;;;;;;;;;;;;;;;;;4965311;28;19922;-82
2021/06/11 07:16:19;;;;;;;;;;;;;;;;;;4922841;28;19926;-86
2021/06/11 07:19:49;;;;;;;;;;;;;;;;;;4887966;28;20170;-83
2021/06/11 07:23:38;;;;;;;;;;;;;;;;;;4933658;28;20371;-84
2021/06/11 07:26:35;;;;;;;;;;;;;;;;;;4945199;28;19937;-86
2021/06/11 07:29:28;;;;;;;;;;;;;;;;;;4920976;28;20608;-84
2021/06/11 07:31:58;;;;;;;;;;;;;;;;;;4928577;28;19976;-87
2021/06/11 07:34:43;;;;;;;;;;;;;;;;;;4941866;28;19942;-87
2021/06/11 07:37:12;;;;;;;;;;;;;;;;;;4943438;28;19931;-83
2021/06/11 07:47:14;;;;;;;;;;;;;;;;;;4896886;28;19929;-83
2021/06/11 07:51:13;;;;;;;;;;;;;;;;;;4925456;28;19922;-85
2021/06/11 07:54:33;;;;;;;;;;;;;;;;;;4913562;28;19922;-83
2021/06/11 07:57:54;;;;;;;;;;;;;;;;;;4966512;28;19922;-87
2021/06/11 08:04:09;;;;;;;;;;;;;;;;;;4963436;28;20392;-84
2021/06/11 08:06:37;;;;;;;;;;;;;;;;;;4953198;28;19945;-85
2021/06/11 08:09:05;;;;;;;;;;;;;;;;;;4950138;28;19926;-83
2021/06/11 08:11:34;;;;;;;;;;;;;;;;;;4950151;28;20281;-82
2021/06/11 08:14:02;;;;;;;;;;;;;;;;;;4954340;28;19926;-83
2021/06/11 08:16:30;;;;;;;;;;;;;;;;;;4954392;28;19934;-84
2021/06/11 08:18:58;;;;;;;;;;;;;;;;;;4963747;28;19926;-86
2021/06/11 08:21:25;;;;;;;;;;;;;;;;;;4970687;28;19925;-84
2021/06/11 08:23:53;;;;;;;;;;;;;;;;;;4955524;28;19922;-85
2021/06/11 08:26:21;;;;;;;;;;;;;;;;;;4952921;28;20403;-81
2021/06/11 08:28:50;;;;;;;;;;;;;;;;;;4951393;28;19922;-83
2021/06/11 08:31:18;;;;;;;;;;;;;;;;;;4949422;28;19922;-84
2021/06/11 08:33:47;;;;;;;;;;;;;;;;;;4944013;28;19926;-82
2021/06/11 08:36:15;;;;;;;;;;;;;;;;;;4935269;28;19929;-82
2021/06/11 08:38:43;;;;;;;;;;;;;;;;;;4957790;28;19922;-83
2021/06/11 08:41:12;;;;;;;;;;;;;;;;;;4966721;28;19922;-83
2021/06/11 08:43:39;;;;;;;;;;;;;;;;;;4970314;28;20308;-82
2021/06/11 08:46:09;;;;;;;;;;;;;;;;;;4952841;28;20404;-82
2021/06/11 08:48:37;;;;;;;;;;;;;;;;;;4949511;28;19922;-82
2021/06/11 08:51:08;;;;;;;;;;;;;;;;;;4965463;28;19933;-83
2021/06/11 08:53:36;;;;;;;;;;;;;;;;;;4968482;28;19933;-81
2021/06/11 08:56:04;;;;;;;;;;;;;;;;;;4971065;28;19990;-82
2021/06/11 08:58:32;;;;;;;;;;;;;;;;;;4950909;28;19929;-82
2021/06/11 09:01:00;;;;;;;;;;;;;;;;;;4947850;28;19923;-82
2021/06/11 09:03:34;;;;;;;;;;;;;;;;;;4953386;28;19922;-82
2021/06/11 09:06:06;;;;;;;;;;;;;;;;;;4963345;28;20292;-82
2021/06/11 09:08:36;;;;;;;;;;;;;;;;;;4911894;28;19923;-82
2021/06/11 09:11:11;;;;;;;;;;;;;;;;;;4942951;28;19926;-83
2021/06/11 09:13:41;;;;;;;;;;;;;;;;;;4925079;28;20405;-84
2021/06/11 09:16:09;;;;;;;;;;;;;;;;;;4967333;28;20206;-82
2021/06/11 09:18:46;;;;;;;;;;;;;;;;;;4969763;28;19929;-83
2021/06/11 09:21:31;;;;;;;;;;;;;;;;;;4952786;28;21239;-82
2021/06/11 09:24:10;;;;;;;;;;;;;;;;;;4954029;28;19930;-82
2021/06/11 09:26:38;;;;;;;;;;;;;;;;;;4971077;28;19926;-82
2021/06/11 09:29:23;;;;;;;;;;;;;;;;;;4983233;28;20303;-81
2021/06/11 09:31:50;;;;;;;;;;;;;;;;;;4962362;28;20283;-81
2021/06/11 09:34:20;;;;;;;;;;;;;;;;;;4948890;28;20383;-83
2021/06/11 09:36:58;;;;;;;;;;;;;;;;;;4964510;28;23054;-82
2021/06/11 09:39:43;;;;;;;;;;;;;;;;;;4947137;28;19929;-81
2021/06/11 09:42:12;;;;;;;;;;;;;;;;;;4961960;28;20064;-81
2021/06/11 09:44:40;;;;;;;;;;;;;;;;;;4974933;28;19922;-83
2021/06/11 09:47:08;;;;;;;;;;;;;;;;;;4954542;28;19922;-84
2021/06/11 09:49:41;;;;;;;;;;;;;;;;;;4954866;28;19926;-83
2021/06/11 09:52:09;;;;;;;;;;;;;;;;;;4967512;28;19922;-82
2021/06/11 09:54:37;;;;;;;;;;;;;;;;;;4948315;28;19922;-82
2021/06/11 09:57:17;;;;;;;;;;;;;;;;;;4968600;28;19922;-82
2021/06/11 09:59:45;;;;;;;;;;;;;;;;;;4966050;28;19928;-82
2021/06/11 10:02:14;;;;;;;;;;;;;;;;;;4950338;28;19929;-82
2021/06/11 10:05:02;;;;;;;;;;;;;;;;;;4964868;28;19930;-81
2021/06/11 10:07:46;;;;;;;;;;;;;;;;;;4980684;28;19930;-81
2021/06/11 10:10:14;;;;;;;;;;;;;;;;;;4920091;28;20380;-82
2021/06/11 10:12:43;;;;;;;;;;;;;;;;;;4963909;28;19922;-81
2021/06/11 10:15:13;;;;;;;;;;;;;;;;;;4950072;28;19935;-81
2021/06/11 10:17:41;;;;;;;;;;;;;;;;;;4951010;28;19937;-83
2021/06/11 10:20:11;;;;;;;;;;;;;;;;;;4945925;28;19934;-82
2021/06/11 10:22:39;;;;;;;;;;;;;;;;;;4950483;28;20307;-83
2021/06/11 10:25:08;;;;;;;;;;;;;;;;;;4979871;28;19925;-85
2021/06/11 10:27:36;;;;;;;;;;;;;;;;;;4966161;28;19925;-84
2021/06/11 10:30:05;;;;;;;;;;;;;;;;;;4949716;28;20411;-83
2021/06/11 10:32:47;;;;;;;;;;;;;;;;;;4949147;28;19929;-85
2021/06/11 10:35:30;;;;;;;;;;;;;;;;;;4964974;28;19929;-86
2021/06/11 10:37:59;;;;;;;;;;;;;;;;;;4963939;28;19922;-83
2021/06/11 10:40:32;;;;;;;;;;;;;;;;;;4946173;28;19922;-85
2021/06/11 10:43:18;;;;;;;;;;;;;;;;;;4982305;28;19922;-86
2021/06/11 10:45:46;;;;;;;;;;;;;;;;;;4957727;28;19922;-84
2021/06/11 10:48:14;;;;;;;;;;;;;;;;;;4947462;28;19937;-85
2021/06/11 10:50:42;;;;;;;;;;;;;;;;;;4965007;28;19938;-86
2021/06/11 10:53:29;;;;;;;;;;;;;;;;;;4963622;28;19926;-85
2021/06/11 10:56:13;;;;;;;;;;;;;;;;;;4967157;28;20565;-85
2021/06/11 10:58:45;;;;;;;;;;;;;;;;;;4947153;28;19930;-85
2021/06/11 11:01:24;;;;;;;;;;;;;;;;;;4950331;28;19941;-86
2021/06/11 11:03:52;;;;;;;;;;;;;;;;;;4965350;28;19922;-84
2021/06/11 11:06:30;;;;;;;;;;;;;;;;;;4980764;28;19941;-85
2021/06/11 11:09:01;;;;;;;;;;;;;;;;;;4983332;28;19926;-84
2021/06/11 11:11:37;;;;;;;;;;;;;;;;;;4979630;28;19940;-84
2021/06/11 11:14:05;;;;;;;;;;;;;;;;;;4971810;28;19917;-85
2021/06/11 11:16:37;;;;;;;;;;;;;;;;;;4978544;28;19933;-85
2021/06/11 11:19:06;;;;;;;;;;;;;;;;;;4971381;28;19922;-85
2021/06/11 11:21:35;;;;;;;;;;;;;;;;;;4969286;28;19954;-85
2021/06/11 11:24:05;;;;;;;;;;;;;;;;;;4956865;28;19926;-85
2021/06/11 11:26:40;;;;;;;;;;;;;;;;;;4972068;28;19925;-85
2021/06/11 11:29:08;;;;;;;;;;;;;;;;;;4953095;28;19937;-85
2021/06/11 11:31:36;;;;;;;;;;;;;;;;;;4971615;28;19926;-85
2021/06/11 11:34:05;;;;;;;;;;;;;;;;;;4957137;28;20198;-85
2021/06/11 11:36:33;;;;;;;;;;;;;;;;;;4969714;28;19922;-85
2021/06/11 11:39:03;;;;;;;;;;;;;;;;;;4951405;28;19929;-86
2021/06/11 11:41:33;;;;;;;;;;;;;;;;;;4969200;28;19922;-86
2021/06/11 11:44:01;;;;;;;;;;;;;;;;;;4953627;28;19922;-86
2021/06/11 11:46:42;;;;;;;;;;;;;;;;;;4970944;28;19922;-83
2021/06/11 11:49:11;;;;;;;;;;;;;;;;;;4968890;28;20387;-86
2021/06/11 11:51:39;;;;;;;;;;;;;;;;;;4970391;28;19929;-87
2021/06/11 11:54:07;;;;;;;;;;;;;;;;;;4954065;28;19922;-85
2021/06/11 11:56:36;;;;;;;;;;;;;;;;;;4948600;28;19929;-85
2021/06/11 11:59:06;;;;;;;;;;;;;;;;;;4962727;28;19922;-86
2021/06/11 12:01:38;;;;;;;;;;;;;;;;;;4959231;28;19929;-86
2021/06/11 12:04:06;;;;;;;;;;;;;;;;;;4963750;28;21762;-86
2021/06/11 12:06:34;;;;;;;;;;;;;;;;;;4947413;28;19931;-86
2021/06/11 12:09:03;;;;;;;;;;;;;;;;;;4968408;28;20401;-87
2021/06/11 12:11:32;;;;;;;;;;;;;;;;;;4954533;28;19926;-86
2021/06/11 12:14:04;;;;;;;;;;;;;;;;;;4956323;28;19929;-86
2021/06/11 12:16:33;;;;;;;;;;;;;;;;;;4951054;28;19933;-87
2021/06/11 12:19:03;;;;;;;;;;;;;;;;;;4950166;28;19929;-87
2021/06/11 12:21:32;;;;;;;;;;;;;;;;;;4947964;28;19922;-86
2021/06/11 12:24:00;;;;;;;;;;;;;;;;;;4950591;28;19926;-86
2021/06/11 12:26:28;;;;;;;;;;;;;;;;;;4953376;28;19922;-86
2021/06/11 12:28:56;;;;;;;;;;;;;;;;;;4955833;28;19929;-86
2021/06/11 12:31:37;;;;;;;;;;;;;;;;;;4952394;28;20446;-86
2021/06/11 12:34:07;;;;;;;;;;;;;;;;;;4925157;28;20345;-86
2021/06/11 12:36:38;;;;;;;;;;;;;;;;;;4944545;28;19922;-86
2021/06/11 12:39:06;;;;;;;;;;;;;;;;;;4954613;28;19929;-85
2021/06/11 12:41:36;;;;;;;;;;;;;;;;;;4948680;28;19929;-86
2021/06/11 12:44:17;;;;;;;;;;;;;;;;;;4942937;28;19929;-85
2021/06/11 12:46:47;;;;;;;;;;;;;;;;;;4968543;28;20336;-85
2021/06/11 12:49:15;;;;;;;;;;;;;;;;;;4952579;28;19922;-85
2021/06/11 12:51:43;;;;;;;;;;;;;;;;;;4950990;28;19929;-85
2021/06/11 12:54:11;;;;;;;;;;;;;;;;;;4965922;28;20323;-85
2021/06/11 12:56:40;;;;;;;;;;;;;;;;;;4968396;28;19937;-86
2021/06/11 12:59:08;;;;;;;;;;;;;;;;;;4945672;28;20393;-86
2021/06/11 13:01:36;;;;;;;;;;;;;;;;;;4963408;28;19922;-86
2021/06/11 13:04:07;;;;;;;;;;;;;;;;;;4965404;28;19922;-86
2021/06/11 13:06:38;;;;;;;;;;;;;;;;;;4960236;28;19923;-85
2021/06/11 13:09:07;;;;;;;;;;;;;;;;;;4967818;28;19929;-86
2021/06/11 13:11:38;;;;;;;;;;;;;;;;;;4945679;28;19921;-86
2021/06/11 13:14:07;;;;;;;;;;;;;;;;;;4947836;28;19929;-86
2021/06/11 13:16:37;;;;;;;;;;;;;;;;;;4961271;28;19930;-86
2021/06/11 13:19:07;;;;;;;;;;;;;;;;;;4947463;28;19923;-86
2021/06/11 13:21:41;;;;;;;;;;;;;;;;;;4954135;28;19976;-86
2021/06/11 13:24:12;;;;;;;;;;;;;;;;;;4949368;28;19923;-85
2021/06/11 13:26:47;;;;;;;;;;;;;;;;;;4979639;28;20588;-86
2021/06/11 13:29:16;;;;;;;;;;;;;;;;;;4948110;28;20308;-86
2021/06/11 13:31:48;;;;;;;;;;;;;;;;;;4950635;28;20412;-85
2021/06/11 13:34:19;;;;;;;;;;;;;;;;;;4962893;28;19926;-86
2021/06/11 13:36:51;;;;;;;;;;;;;;;;;;4949002;28;20124;-86
2021/06/11 13:39:19;;;;;;;;;;;;;;;;;;4947433;28;19930;-86
2021/06/11 13:41:48;;;;;;;;;;;;;;;;;;4966231;28;19922;-86
2021/06/11 13:44:17;;;;;;;;;;;;;;;;;;4950191;28;19922;-86
2021/06/11 13:46:46;;;;;;;;;;;;;;;;;;4962546;28;20390;-85
2021/06/11 13:49:16;;;;;;;;;;;;;;;;;;4973864;28;19929;-86
2021/06/11 13:51:46;;;;;;;;;;;;;;;;;;4963242;28;19924;-85
2021/06/11 13:54:16;;;;;;;;;;;;;;;;;;4967486;28;20392;-85
2021/06/11 13:56:48;;;;;;;;;;;;;;;;;;4969244;28;19926;-85
2021/06/11 13:59:16;;;;;;;;;;;;;;;;;;4957326;28;19927;-85
2021/06/11 14:02:13;;;;;;;;;;;;;;;;;;4958017;28;19922;-84
2021/06/11 14:05:16;;;;;;;;;;;;;;;;;;4932248;28;20346;-85
2021/06/11 14:07:54;;;;;;;;;;;;;;;;;;4940314;28;19937;-84
2021/06/11 14:10:23;;;;;;;;;;;;;;;;;;4964490;28;19922;-85
2021/06/11 14:12:51;;;;;;;;;;;;;;;;;;4964414;28;19929;-85
2021/06/11 14:15:19;;;;;;;;;;;;;;;;;;4968555;28;20104;-85
2021/06/11 14:17:47;;;;;;;;;;;;;;;;;;4952006;28;20316;-84
2021/06/11 14:20:15;;;;;;;;;;;;;;;;;;4968558;28;19927;-85
2021/06/11 14:22:43;;;;;;;;;;;;;;;;;;4969436;28;19929;-85
2021/06/11 14:25:14;;;;;;;;;;;;;;;;;;4953982;28;19922;-85
2021/06/11 14:27:43;;;;;;;;;;;;;;;;;;4983576;28;19933;-85
2021/06/11 14:30:12;;;;;;;;;;;;;;;;;;4962401;28;19929;-84
2021/06/11 14:32:47;;;;;;;;;;;;;;;;;;4956490;28;19929;-86
2021/06/11 14:35:15;;;;;;;;;;;;;;;;;;4950891;28;19922;-85
2021/06/11 14:37:43;;;;;;;;;;;;;;;;;;4981082;28;19922;-87
2021/06/11 14:40:13;;;;;;;;;;;;;;;;;;4968245;28;19933;-85
2021/06/11 14:42:41;;;;;;;;;;;;;;;;;;4956777;28;20324;-85
2021/06/11 14:45:10;;;;;;;;;;;;;;;;;;4946166;28;19923;-85
2021/06/11 14:47:37;;;;;;;;;;;;;;;;;;4949493;28;20403;-85
2021/06/11 14:50:06;;;;;;;;;;;;;;;;;;4957554;28;20300;-85
2021/06/11 14:52:40;;;;;;;;;;;;;;;;;;4976155;28;19930;-85
2021/06/11 14:55:08;;;;;;;;;;;;;;;;;;4973481;28;19923;-85
2021/06/11 14:57:38;;;;;;;;;;;;;;;;;;4962193;28;19922;-85
2021/06/11 15:00:09;;;;;;;;;;;;;;;;;;4948112;28;19926;-85
2021/06/11 15:02:37;;;;;;;;;;;;;;;;;;4986520;28;20293;-85
2021/06/11 15:05:06;;;;;;;;;;;;;;;;;;4953407;28;19935;-85
2021/06/11 15:07:34;;;;;;;;;;;;;;;;;;4968017;28;19937;-86
2021/06/11 15:10:01;;;;;;;;;;;;;;;;;;4980136;28;19922;-83
2021/06/11 15:12:29;;;;;;;;;;;;;;;;;;4963913;28;20434;-85
2021/06/11 15:14:59;;;;;;;;;;;;;;;;;;4963760;28;20315;-84
2021/06/11 15:17:28;;;;;;;;;;;;;;;;;;4949114;28;19923;-85
2021/06/11 15:19:57;;;;;;;;;;;;;;;;;;4978676;28;19929;-84
2021/06/11 15:22:25;;;;;;;;;;;;;;;;;;4967036;28;20411;-84
2021/06/11 15:24:53;;;;;;;;;;;;;;;;;;4942431;28;19930;-84
2021/06/11 15:27:21;;;;;;;;;;;;;;;;;;4949361;28;20369;-84
2021/06/11 15:29:49;;;;;;;;;;;;;;;;;;4948964;28;19929;-85
2021/06/11 15:32:18;;;;;;;;;;;;;;;;;;4961460;28;19929;-84
2021/06/11 15:34:46;;;;;;;;;;;;;;;;;;4949314;28;19930;-85
2021/06/11 15:37:15;;;;;;;;;;;;;;;;;;4953603;28;19922;-84
2021/06/11 15:39:43;;;;;;;;;;;;;;;;;;4953225;28;19927;-85
2021/06/11 15:42:11;;;;;;;;;;;;;;;;;;4954185;28;19922;-84
2021/06/11 15:44:39;;;;;;;;;;;;;;;;;;4968180;28;19970;-84
2021/06/11 15:47:07;;;;;;;;;;;;;;;;;;4953741;28;19922;-84
2021/06/11 15:49:37;;;;;;;;;;;;;;;;;;4969680;28;19930;-85
2021/06/11 15:52:05;;;;;;;;;;;;;;;;;;4952230;28;20054;-85
2021/06/11 15:54:33;;;;;;;;;;;;;;;;;;4954469;28;19923;-84
2021/06/11 15:57:01;;;;;;;;;;;;;;;;;;4966490;28;20293;-85
2021/06/11 15:59:29;;;;;;;;;;;;;;;;;;4948380;28;20377;-85
2021/06/11 16:01:57;;;;;;;;;;;;;;;;;;4962919;28;19927;-85
2021/06/11 16:04:24;;;;;;;;;;;;;;;;;;4944931;28;19922;-84
2021/06/11 16:07:00;;;;;;;;;;;;;;;;;;4967631;28;19922;-85
2021/06/11 16:09:28;;;;;;;;;;;;;;;;;;4950661;28;19922;-85
2021/06/11 16:11:57;;;;;;;;;;;;;;;;;;4953421;28;19926;-84
2021/06/11 16:14:25;;;;;;;;;;;;;;;;;;4962643;28;19937;-85
2021/06/11 16:16:53;;;;;;;;;;;;;;;;;;4946243;28;20103;-84
2021/06/11 16:19:21;;;;;;;;;;;;;;;;;;4981800;28;19926;-84
2021/06/11 16:21:49;;;;;;;;;;;;;;;;;;4983691;28;20288;-84
2021/06/11 16:24:18;;;;;;;;;;;;;;;;;;4963442;28;19926;-83
2021/06/11 16:26:46;;;;;;;;;;;;;;;;;;4946860;28;19922;-84
2021/06/11 16:29:14;;;;;;;;;;;;;;;;;;4966444;28;19933;-83
2021/06/11 16:31:42;;;;;;;;;;;;;;;;;;4968060;28;19970;-85
2021/06/11 16:34:10;;;;;;;;;;;;;;;;;;4951735;28;19922;-85
2021/06/11 16:36:39;;;;;;;;;;;;;;;;;;4948958;28;20497;-85
2021/06/11 16:39:07;;;;;;;;;;;;;;;;;;4968412;28;19922;-84
2021/06/11 16:41:36;;;;;;;;;;;;;;;;;;4981967;28;19922;-84
2021/06/11 16:44:05;;;;;;;;;;;;;;;;;;4952341;28;19926;-85
2021/06/11 16:46:32;;;;;;;;;;;;;;;;;;4969937;28;19922;-85
2021/06/11 16:49:03;;;;;;;;;;;;;;;;;;4968390;28;19922;-84
2021/06/11 16:51:31;;;;;;;;;;;;;;;;;;4952201;28;20032;-85
2021/06/11 16:53:59;;;;;;;;;;;;;;;;;;4950592;28;19922;-85
2021/06/11 16:56:26;;;;;;;;;;;;;;;;;;4948143;28;19926;-86
2021/06/11 16:58:58;;;;;;;;;;;;;;;;;;4961942;28;19990;-84
2021/06/11 17:01:26;;;;;;;;;;;;;;;;;;4947840;28;19929;-84
2021/06/11 17:11:18;;;;;;;;;;;;;;;;;;4960827;28;19922;-84
2021/06/11 17:13:46;;;;;;;;;;;;;;;;;;4938719;28;19933;-84
2021/06/11 17:16:15;;;;;;;;;;;;;;;;;;4962913;28;20304;-84
2021/06/11 17:18:43;;;;;;;;;;;;;;;;;;4955076;28;19929;-84
2021/06/11 17:21:12;;;;;;;;;;;;;;;;;;4947498;28;20275;-84
2021/06/11 17:23:40;;;;;;;;;;;;;;;;;;4952674;28;20475;-83
2021/06/11 17:26:12;;;;;;;;;;;;;;;;;;4948285;28;19923;-83
2021/06/11 17:28:40;;;;;;;;;;;;;;;;;;4967730;28;19929;-85
2021/06/11 17:31:11;;;;;;;;;;;;;;;;;;4949743;28;19929;-85